Time;durP1;ratioP1;P1;durP2;ratioP2;P2;SDS_P1;SDS_P2;PMS_P1;PMS_P2;Temp;Humidity;BMP_temperature;BMP_pressure;BME280_temperature;BME280_humidity;BME280_pressure;Samples;Min_cycle;Max_cycle;Signal;HPM_P1;HPM_P2
2023/04/29 00:02:13;;;;;;;;;;;;;;;14.79;100.00;99620.50;5063389;28;19935;-77
2023/04/29 00:04:39;;;;;;;;;;;;;;;14.76;100.00;99620.84;5063125;28;20395;-76
2023/04/29 00:07:04;;;;;;;;;;;;;;;14.74;100.00;99628.16;5061636;28;19924;-77
2023/04/29 00:09:29;;;;;;;;;;;;;;;14.74;100.00;99620.19;5047129;28;20001;-76
2023/04/29 00:11:55;;;;;;;;;;;;;;;14.75;100.00;99608.56;5056685;28;19920;-75
2023/04/29 00:14:20;;;;;;;;;;;;;;;14.74;100.00;99606.91;5064165;28;19927;-76
2023/04/29 00:16:45;;;;;;;;;;;;;;;14.70;100.00;99605.59;5062318;28;20334;-78
2023/04/29 00:19:11;;;;;;;;;;;;;;;14.76;100.00;99599.59;5061693;28;20335;-77
2023/04/29 00:21:37;;;;;;;;;;;;;;;14.80;100.00;99592.94;5062612;28;19924;-78
2023/04/29 00:24:02;;;;;;;;;;;;;;;14.76;100.00;99578.34;5030488;22;20012;-86
2023/04/29 00:26:28;;;;;;;;;;;;;;;14.68;100.00;99581.84;5002159;28;20302;-87
2023/04/29 00:28:53;;;;;;;;;;;;;;;14.62;100.00;99573.72;5005051;28;19921;-84
2023/04/29 00:31:20;;;;;;;;;;;;;;;14.61;100.00;99553.47;5002302;28;20024;-81
2023/04/29 00:33:45;;;;;;;;;;;;;;;14.53;100.00;99548.19;5003160;28;19922;-81
2023/04/29 00:36:11;;;;;;;;;;;;;;;14.55;100.00;99559.47;5002725;28;19928;-81
2023/04/29 00:38:36;;;;;;;;;;;;;;;14.56;100.00;99551.31;4984198;28;19998;-81
2023/04/29 00:41:02;;;;;;;;;;;;;;;14.54;100.00;99547.19;5004071;28;19928;-81
2023/04/29 00:43:27;;;;;;;;;;;;;;;14.30;100.00;99551.50;5001246;28;19926;-81
2023/04/29 00:45:53;;;;;;;;;;;;;;;14.12;100.00;99553.50;4986340;28;19922;-81
2023/04/29 00:48:18;;;;;;;;;;;;;;;13.80;100.00;99564.03;5002037;28;19975;-81
2023/04/29 00:50:44;;;;;;;;;;;;;;;13.67;100.00;99568.97;4984755;28;20422;-81
2023/04/29 00:53:11;;;;;;;;;;;;;;;13.65;100.00;99555.06;4986213;28;19923;-82
2023/04/29 00:55:37;;;;;;;;;;;;;;;13.67;100.00;99542.47;4985606;28;20008;-83
2023/04/29 00:58:03;;;;;;;;;;;;;;;13.56;100.00;99562.16;4999156;28;19930;-83
2023/04/29 01:00:29;;;;;;;;;;;;;;;13.36;100.00;99566.09;5002086;28;19997;-85
2023/04/29 01:02:55;;;;;;;;;;;;;;;13.37;100.00;99552.66;4999353;28;19980;-85
2023/04/29 01:05:21;;;;;;;;;;;;;;;13.34;100.00;99531.78;5003800;28;20031;-87
2023/04/29 01:07:46;;;;;;;;;;;;;;;13.33;100.00;99538.06;4984726;28;20465;-88
2023/04/29 01:10:21;;;;;;;;;;;;;;;13.40;100.00;99546.22;4983691;28;19965;-87
2023/04/29 01:13:00;;;;;;;;;;;;;;;13.41;100.00;99554.03;4985498;28;19941;-85
2023/04/29 01:15:31;;;;;;;;;;;;;;;13.42;100.00;99555.69;4983328;28;20286;-85
2023/04/29 01:17:59;;;;;;;;;;;;;;;13.41;100.00;99551.38;4986460;28;19921;-85
2023/04/29 01:20:25;;;;;;;;;;;;;;;13.36;100.00;99539.59;4983217;28;20004;-85
2023/04/29 01:22:50;;;;;;;;;;;;;;;13.30;100.00;99530.47;4984889;28;20433;-85
2023/04/29 01:25:16;;;;;;;;;;;;;;;13.33;100.00;99535.44;4986858;28;19965;-85
2023/04/29 01:28:29;;;;;;;;;;;;;;;13.29;100.00;99531.44;4983760;28;20013;-85
2023/04/29 01:31:10;;;;;;;;;;;;;;;13.21;100.00;99542.00;4960626;28;19928;-83
2023/04/29 01:33:54;;;;;;;;;;;;;;;13.18;100.00;99537.03;4989839;28;19984;-83
2023/04/29 01:36:21;;;;;;;;;;;;;;;13.10;100.00;99531.66;4983003;28;20294;-82
2023/04/29 01:39:02;;;;;;;;;;;;;;;13.18;100.00;99552.94;4983310;28;19969;-83
2023/04/29 01:41:41;;;;;;;;;;;;;;;13.15;100.00;99553.25;4998818;28;19978;-83
2023/04/29 01:44:21;;;;;;;;;;;;;;;13.13;100.00;99552.59;5001406;28;19925;-83
2023/04/29 01:46:49;;;;;;;;;;;;;;;13.15;100.00;99541.81;4982847;28;20425;-82
2023/04/29 01:49:15;;;;;;;;;;;;;;;13.17;100.00;99540.69;4997982;28;19976;-83
2023/04/29 01:51:40;;;;;;;;;;;;;;;13.22;100.00;99533.06;4984551;28;19921;-83
2023/04/29 01:54:06;;;;;;;;;;;;;;;13.21;100.00;99526.09;4985986;28;19921;-85
2023/04/29 01:56:31;;;;;;;;;;;;;;;13.25;100.00;99527.47;5000266;28;20001;-84
2023/04/29 01:59:10;;;;;;;;;;;;;;;13.24;100.00;99520.50;4984238;28;19971;-82
2023/04/29 02:01:59;;;;;;;;;;;;;;;13.23;100.00;99518.84;4991196;28;19956;-81
2023/04/29 02:04:27;;;;;;;;;;;;;;;13.28;100.00;99526.31;4982245;28;19929;-81
2023/04/29 02:06:52;;;;;;;;;;;;;;;13.23;100.00;99524.13;4984778;28;20326;-81
2023/04/29 02:09:18;;;;;;;;;;;;;;;13.24;100.00;99531.09;4999928;28;19964;-82
2023/04/29 02:11:49;;;;;;;;;;;;;;;13.32;100.00;99528.47;4984240;28;20374;-82
2023/04/29 02:14:14;;;;;;;;;;;;;;;13.20;100.00;99524.44;5001180;28;19987;-82
2023/04/29 02:16:44;;;;;;;;;;;;;;;13.21;100.00;99528.75;4983327;28;20271;-82
2023/04/29 02:19:10;;;;;;;;;;;;;;;13.19;100.00;99533.41;4984065;28;19922;-82
2023/04/29 02:21:39;;;;;;;;;;;;;;;13.19;100.00;99522.81;5000451;28;19922;-82
2023/04/29 02:24:05;;;;;;;;;;;;;;;13.20;100.00;99529.75;4984286;28;20684;-80
2023/04/29 02:26:30;;;;;;;;;;;;;;;13.11;100.00;99528.03;4984539;28;20350;-81
2023/04/29 02:28:56;;;;;;;;;;;;;;;13.07;100.00;99534.66;4984909;28;19922;-82
2023/04/29 02:31:21;;;;;;;;;;;;;;;12.97;100.00;99528.63;4986276;28;19917;-84
2023/04/29 02:33:47;;;;;;;;;;;;;;;13.01;100.00;99519.38;4983858;28;20412;-80
2023/04/29 02:36:13;;;;;;;;;;;;;;;13.00;100.00;99509.78;5000874;28;19956;-82
2023/04/29 02:38:38;;;;;;;;;;;;;;;13.04;100.00;99503.16;5001619;28;19917;-85
2023/04/29 02:41:03;;;;;;;;;;;;;;;13.08;100.00;99515.09;4983957;28;19977;-82
2023/04/29 02:43:30;;;;;;;;;;;;;;;13.08;100.00;99525.69;4981445;28;20045;-84
2023/04/29 02:45:56;;;;;;;;;;;;;;;13.04;100.00;99545.53;4985867;28;19922;-83
2023/04/29 02:48:21;;;;;;;;;;;;;;;13.01;100.00;99545.88;4986233;28;19921;-82
2023/04/29 02:50:46;;;;;;;;;;;;;;;12.99;100.00;99531.94;4986135;28;20290;-84
2023/04/29 02:53:12;;;;;;;;;;;;;;;13.04;100.00;99532.31;4987390;28;20374;-83
2023/04/29 02:55:37;;;;;;;;;;;;;;;13.09;100.00;99527.34;4987337;28;19925;-83
2023/04/29 02:58:07;;;;;;;;;;;;;;;13.09;100.00;99546.72;4986158;28;19921;-82
2023/04/29 03:00:32;;;;;;;;;;;;;;;13.07;100.00;99545.25;5006228;28;20457;-84
2023/04/29 03:02:57;;;;;;;;;;;;;;;13.08;100.00;99546.88;4985384;28;19926;-84
2023/04/29 03:05:23;;;;;;;;;;;;;;;13.12;100.00;99540.31;4988608;28;19921;-84
2023/04/29 03:07:48;;;;;;;;;;;;;;;13.20;100.00;99534.22;4988414;28;19956;-84
2023/04/29 03:10:13;;;;;;;;;;;;;;;13.22;100.00;99526.94;4986911;28;19928;-83
2023/04/29 03:12:39;;;;;;;;;;;;;;;13.20;100.00;99524.44;4989035;28;19930;-83
2023/04/29 03:15:06;;;;;;;;;;;;;;;13.21;100.00;99531.41;4985793;28;20334;-84
2023/04/29 03:17:32;;;;;;;;;;;;;;;13.16;100.00;99539.00;4988614;28;20020;-83
2023/04/29 03:19:58;;;;;;;;;;;;;;;13.07;100.00;99524.06;4984936;28;20326;-84
2023/04/29 03:22:23;;;;;;;;;;;;;;;13.11;100.00;99526.22;5006027;28;19922;-84
2023/04/29 03:24:48;;;;;;;;;;;;;;;13.15;100.00;99518.81;4985416;28;19921;-84
2023/04/29 03:27:14;;;;;;;;;;;;;;;13.12;100.00;99521.78;4986675;28;20016;-83
2023/04/29 03:29:39;;;;;;;;;;;;;;;13.08;100.00;99517.75;4987123;28;19922;-82
2023/04/29 03:32:05;;;;;;;;;;;;;;;13.07;100.00;99526.69;4985642;28;20002;-83
2023/04/29 03:34:31;;;;;;;;;;;;;;;13.06;100.00;99532.97;4988253;28;19976;-83
2023/04/29 03:37:16;;;;;;;;;;;;;;;13.00;100.00;99533.63;5002429;28;19922;-82
2023/04/29 03:39:44;;;;;;;;;;;;;;;12.99;100.00;99522.19;5008641;28;19992;-84
2023/04/29 03:42:12;;;;;;;;;;;;;;;12.93;100.00;99506.09;4989634;28;20386;-81
2023/04/29 03:44:37;;;;;;;;;;;;;;;12.97;100.00;99496.84;5005338;28;20009;-83
2023/04/29 03:47:02;;;;;;;;;;;;;;;12.93;100.00;99501.63;5007811;28;19922;-85
2023/04/29 03:49:28;;;;;;;;;;;;;;;12.96;100.00;99508.44;4997606;28;19932;-82
2023/04/29 03:51:53;;;;;;;;;;;;;;;12.89;100.00;99515.38;5005466;28;19917;-83
2023/04/29 03:54:19;;;;;;;;;;;;;;;12.89;100.00;99515.38;4985029;28;19925;-82
2023/04/29 03:56:45;;;;;;;;;;;;;;;12.79;100.00;99504.03;4986082;28;20028;-84
2023/04/29 03:59:11;;;;;;;;;;;;;;;12.76;100.00;99504.38;4983370;28;19968;-84
2023/04/29 04:01:37;;;;;;;;;;;;;;;12.78;100.00;99491.81;4987811;28;19922;-86
2023/04/29 04:04:03;;;;;;;;;;;;;;;12.86;100.00;99482.06;4987192;28;19924;-83
2023/04/29 04:06:30;;;;;;;;;;;;;;;12.84;100.00;99480.59;4985911;28;20385;-82
2023/04/29 04:08:56;;;;;;;;;;;;;;;12.90;100.00;99479.94;5000709;28;19922;-83
2023/04/29 04:11:26;;;;;;;;;;;;;;;12.87;100.00;99475.78;4996289;28;19992;-83
2023/04/29 04:14:01;;;;;;;;;;;;;;;12.86;100.00;99473.28;4987165;28;19927;-84
2023/04/29 04:16:27;;;;;;;;;;;;;;;12.89;100.00;99462.41;4987786;28;20378;-83
2023/04/29 04:18:52;;;;;;;;;;;;;;;12.91;100.00;99471.00;4986775;28;19932;-84
2023/04/29 04:21:18;;;;;;;;;;;;;;;12.96;100.00;99472.16;4985120;28;20015;-85
2023/04/29 04:23:50;;;;;;;;;;;;;;;12.92;100.00;99477.94;4983550;28;19921;-85
2023/04/29 04:26:20;;;;;;;;;;;;;;;12.98;100.00;99472.84;4986449;28;19922;-85
2023/04/29 04:28:55;;;;;;;;;;;;;;;13.00;100.00;99464.75;5001552;28;19976;-87
2023/04/29 04:31:39;;;;;;;;;;;;;;;13.00;100.00;99470.03;5003330;28;19937;-87
2023/04/29 04:34:05;;;;;;;;;;;;;;;12.98;100.00;99459.59;4992923;28;20334;-88
2023/04/29 04:36:31;;;;;;;;;;;;;;;12.97;100.00;99470.34;5002092;28;19925;-89
2023/04/29 04:38:57;;;;;;;;;;;;;;;12.91;100.00;99481.59;4986961;28;19925;-87
2023/04/29 04:41:22;;;;;;;;;;;;;;;12.87;100.00;99489.03;5004373;28;19940;-85
2023/04/29 04:43:49;;;;;;;;;;;;;;;12.81;100.00;99494.13;4984162;28;19929;-83
2023/04/29 04:46:35;;;;;;;;;;;;;;;12.72;100.00;99499.38;4963563;28;19928;-83
2023/04/29 04:49:23;;;;;;;;;;;;;;;12.47;100.00;99494.94;4966333;28;19929;-84
2023/04/29 04:51:51;;;;;;;;;;;;;;;12.29;100.00;99495.00;4985501;28;19936;-83
2023/04/29 04:54:16;;;;;;;;;;;;;;;12.36;100.00;99503.16;4983735;28;20362;-83
2023/04/29 04:56:41;;;;;;;;;;;;;;;12.42;100.00;99502.53;4984169;28;19941;-83
2023/04/29 04:59:08;;;;;;;;;;;;;;;12.43;100.00;99514.75;4985546;28;19937;-84
2023/04/29 05:01:36;;;;;;;;;;;;;;;12.45;100.00;99501.38;4990255;28;20314;-85
2023/04/29 05:04:02;;;;;;;;;;;;;;;12.55;100.00;99508.22;4986343;28;19931;-85
2023/04/29 05:06:28;;;;;;;;;;;;;;;12.61;100.00;99497.00;4985363;28;19925;-84
2023/04/29 05:08:53;;;;;;;;;;;;;;;12.66;100.00;99500.00;5003695;28;20028;-82
2023/04/29 05:11:20;;;;;;;;;;;;;;;12.72;100.00;99512.59;4985086;28;20345;-82
2023/04/29 05:13:59;;;;;;;;;;;;;;;12.71;100.00;99518.91;4983353;28;20183;-81
2023/04/29 05:16:25;;;;;;;;;;;;;;;12.63;100.00;99524.16;4987116;28;20012;-83
2023/04/29 05:18:51;;;;;;;;;;;;;;;12.60;100.00;99521.84;5001158;28;19964;-83
2023/04/29 05:21:16;;;;;;;;;;;;;;;12.57;100.00;99532.72;4985440;28;20369;-83
2023/04/29 05:23:42;;;;;;;;;;;;;;;12.67;100.00;99522.00;4985954;28;19927;-82
2023/04/29 05:26:07;;;;;;;;;;;;;;;12.67;100.00;99522.00;5003774;28;20131;-82
2023/04/29 05:28:34;;;;;;;;;;;;;;;12.71;100.00;99518.91;5003694;28;20027;-83
2023/04/29 05:31:00;;;;;;;;;;;;;;;12.81;100.00;99528.53;4983949;28;20410;-85
2023/04/29 05:33:25;;;;;;;;;;;;;;;12.82;100.00;99538.16;5003687;28;19932;-84
2023/04/29 05:35:50;;;;;;;;;;;;;;;12.91;100.00;99539.84;5005118;28;20386;-86
2023/04/29 05:38:17;;;;;;;;;;;;;;;12.91;100.00;99545.97;4984120;28;20404;-82
2023/04/29 05:40:49;;;;;;;;;;;;;;;12.99;100.00;99547.84;5002160;28;19928;-82
2023/04/29 05:43:34;;;;;;;;;;;;;;;12.96;100.00;99541.03;5000498;28;19949;-81
2023/04/29 05:46:00;;;;;;;;;;;;;;;12.97;100.00;99539.22;4985713;28;19925;-80
2023/04/29 05:48:25;;;;;;;;;;;;;;;13.00;100.00;99555.63;4979852;28;20270;-78
2023/04/29 05:50:52;;;;;;;;;;;;;;;13.03;100.00;99554.47;4999301;28;20010;-82
2023/04/29 05:53:18;;;;;;;;;;;;;;;13.04;100.00;99561.44;4985100;28;19981;-81
2023/04/29 05:55:45;;;;;;;;;;;;;;;13.12;100.00;99558.88;4984845;28;20000;-83
2023/04/29 05:58:11;;;;;;;;;;;;;;;13.19;100.00;99565.19;4988819;28;19937;-82
2023/04/29 06:00:37;;;;;;;;;;;;;;;13.19;100.00;99578.44;4985903;28;19926;-85
2023/04/29 06:03:11;;;;;;;;;;;;;;;13.11;100.00;99583.66;4987790;28;19921;-83
2023/04/29 06:05:36;;;;;;;;;;;;;;;13.10;100.00;99592.59;4991402;28;19921;-83
2023/04/29 06:08:28;;;;;;;;;;;;;;;13.08;100.00;99605.16;4994936;28;20028;-82
2023/04/29 06:11:02;;;;;;;;;;;;;;;13.10;100.00;99608.50;5000192;28;19925;-90
2023/04/29 06:13:29;;;;;;;;;;;;;;;13.12;100.00;99614.50;5001623;28;19933;-91
2023/04/29 06:15:55;;;;;;;;;;;;;;;13.08;100.00;99610.47;5000335;28;20072;-93
2023/04/29 06:18:21;;;;;;;;;;;;;;;13.09;100.00;99612.97;4984174;28;19929;-85
2023/04/29 06:20:46;;;;;;;;;;;;;;;13.11;100.00;99620.75;5000234;28;19928;-84
2023/04/29 06:23:13;;;;;;;;;;;;;;;12.98;100.00;99625.63;4982597;28;19922;-84
2023/04/29 06:25:38;;;;;;;;;;;;;;;12.93;100.00;99625.28;4981051;28;20024;-83
2023/04/29 06:28:07;;;;;;;;;;;;;;;13.01;100.00;99630.66;4979023;28;19921;-83
2023/04/29 06:30:32;;;;;;;;;;;;;;;12.92;100.00;99626.25;4988987;28;19921;-84
2023/04/29 06:32:58;;;;;;;;;;;;;;;12.91;100.00;99629.91;4985472;28;20291;-83
2023/04/29 06:35:23;;;;;;;;;;;;;;;12.84;100.00;99618.28;4985025;28;19934;-82
2023/04/29 06:38:03;;;;;;;;;;;;;;;12.89;100.00;99616.84;4990432;28;19933;-82
2023/04/29 06:40:43;;;;;;;;;;;;;;;12.80;100.00;99620.41;5004807;28;19925;-86
2023/04/29 06:43:27;;;;;;;;;;;;;;;12.87;100.00;99617.97;4990842;28;19929;-84
2023/04/29 06:46:11;;;;;;;;;;;;;;;12.96;100.00;99606.44;5001550;28;20056;-83
2023/04/29 06:48:56;;;;;;;;;;;;;;;13.07;100.00;99608.81;5003176;28;20428;-77
2023/04/29 06:51:21;;;;;;;;;;;;;;;13.16;100.00;99602.59;4987864;28;19930;-83
2023/04/29 06:53:47;;;;;;;;;;;;;;;13.21;100.00;99602.13;5002190;28;19976;-84
2023/04/29 06:56:12;;;;;;;;;;;;;;;13.24;100.00;99600.00;5005565;28;20001;-83
2023/04/29 06:58:38;;;;;;;;;;;;;;;13.24;100.00;99593.88;5002493;28;20298;-85
2023/04/29 07:01:04;;;;;;;;;;;;;;;13.33;100.00;99593.72;5005961;28;19929;-86
2023/04/29 07:03:30;;;;;;;;;;;;;;;13.40;100.00;99594.75;4988567;28;20404;-86
2023/04/29 07:05:55;;;;;;;;;;;;;;;13.39;100.00;99589.63;5002874;28;19922;-83
2023/04/29 07:08:22;;;;;;;;;;;;;;;13.42;100.00;99590.16;4988853;28;19929;-84
2023/04/29 07:10:56;;;;;;;;;;;;;;;13.51;100.00;99597.13;5000308;28;19926;-85
2023/04/29 07:13:22;;;;;;;;;;;;;;;13.62;100.00;99603.94;4997881;28;20012;-84
2023/04/29 07:15:49;;;;;;;;;;;;;;;13.68;100.00;99599.81;4983195;28;19922;-83
2023/04/29 07:18:14;;;;;;;;;;;;;;;13.79;100.00;99596.84;4989180;28;19925;-80
2023/04/29 07:20:41;;;;;;;;;;;;;;;13.87;100.00;99610.16;5008217;28;19944;-86
2023/04/29 07:23:06;;;;;;;;;;;;;;;13.92;100.00;99610.50;5004395;28;19906;-85
2023/04/29 07:25:32;;;;;;;;;;;;;;;14.00;100.00;99613.16;5020397;28;19984;-84
2023/04/29 07:27:59;;;;;;;;;;;;;;;14.08;100.00;99610.50;4988673;28;20298;-86
2023/04/29 07:30:24;;;;;;;;;;;;;;;14.15;100.00;99614.19;4983190;28;19922;-87
2023/04/29 07:32:50;;;;;;;;;;;;;;;14.13;100.00;99624.16;4992086;28;19921;-85
2023/04/29 07:35:17;;;;;;;;;;;;;;;14.16;100.00;99629.13;4988041;28;19928;-86
2023/04/29 07:37:42;;;;;;;;;;;;;;;14.23;100.00;99616.84;5005786;28;20016;-85
2023/04/29 07:40:09;;;;;;;;;;;;;;;14.33;100.00;99625.47;4991887;28;19925;-85
2023/04/29 07:42:34;;;;;;;;;;;;;;;14.49;100.00;99626.53;4992199;28;20396;-84
2023/04/29 07:45:00;;;;;;;;;;;;;;;14.71;100.00;99617.88;4985003;28;19976;-83
2023/04/29 07:47:25;;;;;;;;;;;;;;;14.92;100.00;99620.81;5009166;28;20382;-83
2023/04/29 07:49:52;;;;;;;;;;;;;;;15.05;100.00;99620.31;4991782;28;19929;-82
2023/04/29 07:52:18;;;;;;;;;;;;;;;15.23;100.00;99622.75;5007074;28;19944;-84
2023/04/29 07:54:47;;;;;;;;;;;;;;;15.33;100.00;99618.88;5007200;28;20281;-81
2023/04/29 07:57:13;;;;;;;;;;;;;;;15.40;100.00;99624.34;5005304;28;19921;-82
2023/04/29 07:59:40;;;;;;;;;;;;;;;15.46;100.00;99623.66;4989317;28;19949;-87
2023/04/29 08:02:05;;;;;;;;;;;;;;;15.48;100.00;99627.00;4988343;28;19932;-85
2023/04/29 08:04:31;;;;;;;;;;;;;;;15.52;100.00;99636.31;4990681;28;19922;-87
2023/04/29 08:07:07;;;;;;;;;;;;;;;15.52;100.00;99628.34;4995325;28;19993;-81
2023/04/29 08:09:34;;;;;;;;;;;;;;;15.56;100.00;99629.63;4982741;28;20040;-81
2023/04/29 08:12:01;;;;;;;;;;;;;;;15.62;100.00;99634.25;4988338;28;20378;-86
2023/04/29 08:14:27;;;;;;;;;;;;;;;15.69;100.00;99635.22;5009557;28;19922;-81
2023/04/29 08:16:54;;;;;;;;;;;;;;;15.76;100.00;99630.06;4988215;28;19928;-81
2023/04/29 08:19:20;;;;;;;;;;;;;;;15.79;100.00;99614.56;5007176;28;20289;-86
2023/04/29 08:21:46;;;;;;;;;;;;;;;15.84;100.00;99617.56;4983624;28;19921;-80
2023/04/29 08:24:12;;;;;;;;;;;;;;;15.94;100.00;99615.50;5006280;28;20000;-80
2023/04/29 08:26:41;;;;;;;;;;;;;;;16.11;100.00;99618.03;5003881;28;20382;-79
2023/04/29 08:29:06;;;;;;;;;;;;;;;16.22;100.00;99623.78;4983109;28;20389;-78
2023/04/29 08:31:33;;;;;;;;;;;;;;;16.22;100.00;99630.94;5004535;28;19922;-81
2023/04/29 08:33:58;;;;;;;;;;;;;;;16.35;100.00;99625.84;5008253;28;19930;-83
2023/04/29 08:36:25;;;;;;;;;;;;;;;16.45;100.00;99626.44;5003204;28;19976;-87
2023/04/29 08:38:52;;;;;;;;;;;;;;;16.48;100.00;99626.09;5008547;28;20004;-78
2023/04/29 08:41:17;;;;;;;;;;;;;;;16.62;100.00;99625.31;5000105;28;20060;-80
2023/04/29 08:43:42;;;;;;;;;;;;;;;16.76;100.00;99624.53;5006442;28;20000;-80
2023/04/29 08:46:08;;;;;;;;;;;;;;;16.92;100.00;99622.72;5004254;28;19932;-77
2023/04/29 08:48:35;;;;;;;;;;;;;;;16.93;100.00;99619.06;5008241;28;20009;-79
2023/04/29 08:51:01;;;;;;;;;;;;;;;16.98;100.00;99622.00;5004375;28;19958;-82
2023/04/29 08:53:26;;;;;;;;;;;;;;;17.00;100.00;99620.00;5008258;28;20496;-88
2023/04/29 08:55:53;;;;;;;;;;;;;;;17.08;100.00;99622.59;5005376;28;19930;-84
2023/04/29 08:58:18;;;;;;;;;;;;;;;17.17;100.00;99616.97;5007141;28;19988;-89
2023/04/29 09:00:44;;;;;;;;;;;;;;;17.30;100.00;99611.00;5004288;28;20710;-84
2023/04/29 09:03:31;;;;;;;;;;;;;;;17.33;100.00;99625.78;5009065;28;20373;-82
2023/04/29 09:05:59;;;;;;;;;;;;;;;17.43;100.00;99616.50;5003049;28;20283;-83
2023/04/29 09:08:25;;;;;;;;;;;;;;;17.57;100.00;99621.00;5007429;28;19928;-83
2023/04/29 09:10:51;;;;;;;;;;;;;;;17.65;100.00;99616.59;4984991;28;19922;-83
2023/04/29 09:13:23;;;;;;;;;;;;;;;17.72;100.00;99617.50;5013735;28;19999;-83
2023/04/29 09:15:48;;;;;;;;;;;;;;;17.83;100.00;99611.69;5003891;28;19993;-83
2023/04/29 09:18:33;;;;;;;;;;;;;;;17.96;100.00;99606.50;4989858;28;19922;-83
2023/04/29 09:21:11;;;;;;;;;;;;;;;17.99;100.00;99603.44;5011626;28;20489;-83
2023/04/29 09:23:37;;;;;;;;;;;;;;;18.06;100.00;99604.34;5025194;28;19936;-82
2023/04/29 09:26:02;;;;;;;;;;;;;;;18.17;100.00;99598.50;5021075;28;19925;-83
2023/04/29 09:28:28;;;;;;;;;;;;;;;18.26;100.00;99591.19;5010095;28;19926;-83
2023/04/29 09:30:53;;;;;;;;;;;;;;;18.28;100.00;99589.16;5006717;28;19921;-81
2023/04/29 09:33:19;;;;;;;;;;;;;;;18.24;100.00;99588.72;5002439;28;19925;-83
2023/04/29 09:35:45;;;;;;;;;;;;;;;18.25;100.00;99590.38;5008072;28;20373;-83
2023/04/29 09:38:12;;;;;;;;;;;;;;;18.28;100.00;99589.16;4989605;28;19932;-82
2023/04/29 09:40:38;;;;;;;;;;;;;;;18.36;100.00;99581.00;5007264;28;19931;-83
2023/04/29 09:43:11;;;;;;;;;;;;;;;18.42;100.00;99581.06;5004345;28;19949;-83
2023/04/29 09:45:38;;;;;;;;;;;;;;;18.44;100.00;99582.72;5004420;28;19925;-82
2023/04/29 09:48:04;;;;;;;;;;;;;;;18.55;100.00;99574.22;5004294;28;19933;-83
2023/04/29 09:50:31;;;;;;;;;;;;;;;18.61;100.00;99560.91;5006965;28;19944;-83
2023/04/29 09:52:56;;;;;;;;;;;;;;;18.64;100.00;99557.00;4986729;28;19943;-84
2023/04/29 09:55:22;;;;;;;;;;;;;;;18.70;100.00;99556.22;5004733;28;20441;-84
2023/04/29 09:57:47;;;;;;;;;;;;;;;18.65;100.00;99547.97;5005308;28;19921;-84
2023/04/29 10:00:14;;;;;;;;;;;;;;;18.72;100.00;99544.34;5005871;28;19967;-83
2023/04/29 10:02:45;;;;;;;;;;;;;;;18.77;100.00;99541.06;5004936;28;19925;-84
2023/04/29 10:05:12;;;;;;;;;;;;;;;18.85;100.00;99542.78;5006263;28;19927;-84
2023/04/29 10:07:38;;;;;;;;;;;;;;;18.84;100.00;99541.94;5004530;28;19922;-84
2023/04/29 10:10:05;;;;;;;;;;;;;;;18.85;100.00;99543.56;5007098;28;20360;-83
2023/04/29 10:12:32;;;;;;;;;;;;;;;18.86;100.00;99539.06;5000006;28;19921;-84
2023/04/29 10:14:57;;;;;;;;;;;;;;;18.88;100.00;99537.84;5002988;28;19976;-83
2023/04/29 10:17:27;;;;;;;;;;;;;;;18.99;100.00;99545.31;5006475;28;19926;-82
2023/04/29 10:20:05;;;;;;;;;;;;;;;19.11;100.00;99540.22;5001165;28;20374;-84
2023/04/29 10:22:42;;;;;;;;;;;;;;;19.18;100.00;99533.91;4999558;28;20008;-83
2023/04/29 10:25:08;;;;;;;;;;;;;;;19.21;100.00;99528.13;5002080;28;19922;-84
2023/04/29 10:27:36;;;;;;;;;;;;;;;19.22;100.00;99519.09;5007345;28;19921;-83
2023/04/29 10:30:01;;;;;;;;;;;;;;;19.24;100.00;99510.88;5002803;28;19925;-84
2023/04/29 10:32:27;;;;;;;;;;;;;;;19.36;100.00;99508.47;5005359;28;19928;-84
2023/04/29 10:34:54;;;;;;;;;;;;;;;19.45;100.00;99509.91;5002575;28;20455;-83
2023/04/29 10:37:20;;;;;;;;;;;;;;;19.55;100.00;99507.75;5008006;28;19925;-83
2023/04/29 10:39:45;;;;;;;;;;;;;;;19.67;100.00;99516.84;5015536;28;19953;-82
2023/04/29 10:42:30;;;;;;;;;;;;;;;19.79;100.00;99509.84;5016628;28;20032;-83
2023/04/29 10:45:15;;;;;;;;;;;;;;;19.89;100.00;99504.94;5003147;28;20053;-83
2023/04/29 10:47:40;;;;;;;;;;;;;;;19.98;100.00;99498.34;4983341;28;20338;-84
2023/04/29 10:50:05;;;;;;;;;;;;;;;20.06;100.00;99496.50;5008453;28;19922;-83
2023/04/29 10:52:49;;;;;;;;;;;;;;;20.12;100.00;99487.63;5003583;28;19925;-83
2023/04/29 10:55:15;;;;;;;;;;;;;;;20.14;100.00;99485.59;5006569;28;20370;-83
2023/04/29 10:57:41;;;;;;;;;;;;;;;20.17;100.00;99482.47;5006652;28;19917;-83
2023/04/29 11:00:20;;;;;;;;;;;;;;;20.22;100.00;99478.16;5008218;28;19927;-83
2023/04/29 11:02:46;;;;;;;;;;;;;;;20.26;98.38;99470.53;5020995;28;19985;-83
2023/04/29 11:05:11;;;;;;;;;;;;;;;20.24;96.75;99465.38;5025973;28;19916;-83
2023/04/29 11:07:37;;;;;;;;;;;;;;;20.27;98.25;99454.22;5020182;28;19922;-83
2023/04/29 11:10:02;;;;;;;;;;;;;;;20.34;98.67;99451.56;4992319;28;20254;-83
2023/04/29 11:12:27;;;;;;;;;;;;;;;20.29;98.71;99459.38;5006874;28;19949;-82
2023/04/29 11:15:00;;;;;;;;;;;;;;;20.27;99.31;99458.75;5007458;28;20378;-84
2023/04/29 11:17:26;;;;;;;;;;;;;;;20.35;99.40;99451.38;5009538;28;19922;-83
2023/04/29 11:19:52;;;;;;;;;;;;;;;20.46;96.05;99446.41;5009998;28;20377;-83
2023/04/29 11:22:17;;;;;;;;;;;;;;;20.52;95.63;99457.13;5005822;28;19948;-83
2023/04/29 11:24:48;;;;;;;;;;;;;;;20.56;96.33;99439.56;5009664;28;19921;-83
2023/04/29 11:27:16;;;;;;;;;;;;;;;20.64;96.20;99450.09;5007608;28;19936;-83
2023/04/29 11:29:44;;;;;;;;;;;;;;;20.65;95.42;99446.38;5007862;28;20397;-83
2023/04/29 11:32:09;;;;;;;;;;;;;;;20.71;93.98;99440.16;5008989;28;20381;-83
2023/04/29 11:34:34;;;;;;;;;;;;;;;20.83;94.85;99433.13;5006788;28;19922;-82
2023/04/29 11:37:00;;;;;;;;;;;;;;;20.98;93.55;99429.34;5013572;28;20019;-82
2023/04/29 11:39:26;;;;;;;;;;;;;;;21.06;92.40;99427.25;5009344;28;19953;-83
2023/04/29 11:41:51;;;;;;;;;;;;;;;21.19;92.08;99426.41;5013668;28;19925;-83
2023/04/29 11:44:21;;;;;;;;;;;;;;;21.29;91.65;99421.38;5010490;28;19937;-83
2023/04/29 11:46:46;;;;;;;;;;;;;;;21.34;92.24;99416.19;5005845;28;20341;-81
2023/04/29 11:49:11;;;;;;;;;;;;;;;21.37;92.48;99423.00;5004591;28;20004;-83
2023/04/29 11:51:37;;;;;;;;;;;;;;;21.34;91.17;99424.25;5009200;28;20021;-82
2023/04/29 11:54:02;;;;;;;;;;;;;;;21.52;91.00;99426.19;5005845;28;20020;-82
2023/04/29 11:56:28;;;;;;;;;;;;;;;21.82;90.82;99421.03;5009952;28;19984;-83
2023/04/29 11:58:55;;;;;;;;;;;;;;;22.05;88.97;99421.28;4989831;28;19944;-82
2023/04/29 12:01:21;;;;;;;;;;;;;;;22.17;88.32;99413.31;5008411;28;19925;-83
2023/04/29 12:03:47;;;;;;;;;;;;;;;22.24;88.04;99414.09;5014038;28;19928;-82
2023/04/29 12:06:14;;;;;;;;;;;;;;;22.45;84.66;99410.97;5009288;28;20301;-82
2023/04/29 12:08:39;;;;;;;;;;;;;;;22.58;83.06;99405.47;5012672;28;19926;-81
2023/04/29 12:11:05;;;;;;;;;;;;;;;22.74;83.82;99398.69;5007181;28;19925;-83
2023/04/29 12:13:32;;;;;;;;;;;;;;;22.86;83.64;99392.31;5006945;28;19957;-82
2023/04/29 12:15:58;;;;;;;;;;;;;;;22.96;82.62;99390.97;5005499;28;19926;-82
2023/04/29 12:18:23;;;;;;;;;;;;;;;23.16;82.22;99392.34;5003185;28;20379;-83
2023/04/29 12:20:52;;;;;;;;;;;;;;;23.33;81.45;99402.50;5007125;28;19932;-81
2023/04/29 12:23:21;;;;;;;;;;;;;;;23.50;80.85;99398.13;4978054;28;20294;-81
2023/04/29 12:25:54;;;;;;;;;;;;;;;23.66;79.55;99397.47;5038927;23;19936;-78
2023/04/29 12:28:24;;;;;;;;;;;;;;;23.62;78.81;99404.38;5024660;28;19935;-78
2023/04/29 12:30:50;;;;;;;;;;;;;;;23.55;78.82;99395.56;5038163;28;19921;-77
2023/04/29 12:33:23;;;;;;;;;;;;;;;23.41;77.08;99402.97;5030045;28;20011;-85
2023/04/29 12:35:50;;;;;;;;;;;;;;;23.33;76.74;99391.72;5036348;28;19921;-78
2023/04/29 12:38:19;;;;;;;;;;;;;;;23.45;77.58;99392.56;5043633;28;19921;-76
2023/04/29 12:40:45;;;;;;;;;;;;;;;23.51;77.28;99383.59;5043303;28;19966;-76
2023/04/29 12:43:10;;;;;;;;;;;;;;;23.45;77.50;99381.78;5040655;28;19951;-75